Ansley, Nebraska
Current Conditions -  °F | °C
As of 9:53 PM on Sunday 21 Dec 2014 (Local Time) from KBBW Reporting Station
Overcast Overcast  
Wind Chill: 33°   Ceiling: 1200
Heat Index: 38°   Visibility: 7mi
Dew Point: 35°   Wind: 7mph
Humidity: 89%   Direction: 200°SSW
Pressure: 29.49"   Gusts: NA
Location:  41.29°N, 99.38°W
Report Text: KBBW 220353Z AUTO 20006KT 7SM FEW009 BKN012 OVC065 03/02 A2949 RMK AO2 SLP000 T00330017
Loading
Personal Weather Stations






























Interactive Weather Map New forecast layout! Learn more

10-Day Weather Forecast

Advertisements
Track Severe Weather on mobile